Airfield :
LOGIN :

Register | Disclaimer

   EN    FR    IT 

 










Legend :    VFR   Marginal VFR   IFR   Intensive IFR   Very Intensive IFR
Visi :
Ceiling :
>= 8 km
>= 3000ft
5 to 8 km
1000 to 3000 ft
1500m to 5 km
500 to 1000 ft
800 to 1500m
200 to 500 ft
< 800m
< 200 ft
Symbols :   Thunderstorms  Fog  Heavy snow  Heavy precipitations  Wind > 20 kt
SIGMETs :     Misc.  Thunderstorms  Icing  Turbulence  Mountain Waves  Volcanic Ashes






- Airport Elevation : 2731 ft
- IATA code : LPY


LFHP - Le Puy Loudes

CURRENT METAR :
  • 131100Z AUTO 29016G27KT 260V320 9999 FEW027 BKN035 BKN052 06/02 Q0994

EXPIRED METARs :
  • 131030Z AUTO 31015KT 270V330 9999 -RA SCT018 BKN034 OVC042 04/02 Q0994
  • 131000Z AUTO 29012KT 260V320 9999 -DZ FEW016 SCT029 BKN034 04/02 Q0994
  • 130930Z AUTO 31011KT 8000 RA SCT018 SCT026 BKN031 03/02 Q0993
  • 130900Z AUTO 31013KT 9999 RA FEW013/// BKN020/// BKN036/// ///TCU 03/01 Q0993
  • 130830Z AUTO 31016KT 270V330 8000 RA SCT015/// BKN022/// BKN034/// ///TCU 03/02 Q0992

Expired Forecast.



MET'MAP, your aeronautical weather chart ! - Copyright ORBIFLY December 2007 - Disclaimer

ORBIFLY MET'MAP TEAM :

Programming & Development : Alexandra Zaïnal
Concept & original design : Baudouin d'Aumeries
Assistance for programming : Marc-Olivier Méhu
Technical & hardware support : Manuel Goepfert

Contact : metmap@orbifly.com




SOURCES & CREDITS :

   NOAA